createdAt,value
2018-05-12T00:00:47.015Z,12.80
2018-05-12T00:03:15.244Z,12.30
2018-05-12T00:05:42.699Z,13.33
2018-05-12T00:08:10.204Z,16.37
2018-05-12T00:10:38.440Z,14.67
2018-05-12T00:13:05.900Z,12.40
2018-05-12T00:15:33.363Z,13.27
2018-05-12T00:18:00.817Z,13.33
2018-05-12T00:20:28.340Z,14.70
2018-05-12T00:22:55.835Z,12.07
2018-05-12T00:25:23.304Z,12.87
2018-05-12T00:27:50.751Z,16.93
2018-05-12T00:30:18.217Z,12.13
2018-05-12T00:32:45.701Z,14.10
2018-05-12T00:35:13.963Z,15.30
2018-05-12T00:37:42.185Z,16.83
2018-05-12T00:40:09.658Z,17.17
2018-05-12T00:42:37.212Z,12.83
2018-05-12T00:45:04.667Z,12.70
2018-05-12T00:47:32.149Z,12.97
2018-05-12T00:49:59.670Z,11.80
2018-05-12T00:52:27.211Z,11.70
2018-05-12T00:54:54.676Z,11.20
2018-05-12T00:57:22.171Z,12.97
2018-05-12T00:59:50.680Z,12.53
2018-05-12T01:02:18.226Z,12.00
2018-05-12T01:04:45.700Z,13.10
2018-05-12T01:07:13.152Z,10.60
2018-05-12T01:09:40.590Z,11.40
2018-05-12T01:12:08.040Z,13.10
2018-05-12T01:14:35.502Z,10.90
2018-05-12T01:17:02.971Z,11.70
2018-05-12T01:19:30.424Z,12.33
2018-05-12T01:21:57.921Z,12.97
2018-05-12T01:24:26.161Z,12.07
2018-05-12T01:26:53.617Z,11.60
2018-05-12T01:29:21.060Z,14.93
2018-05-12T01:31:48.523Z,11.70
2018-05-12T01:34:15.979Z,11.30
2018-05-12T01:36:43.477Z,14.17
2018-05-12T01:39:11.696Z,12.87
2018-05-12T01:41:39.144Z,13.77
2018-05-12T01:44:06.589Z,13.60
2018-05-12T01:46:34.041Z,12.10
2018-05-12T01:49:01.498Z,12.83
2018-05-12T01:51:28.952Z,14.97
2018-05-12T01:53:56.399Z,16.57
2018-05-12T01:56:24.621Z,13.97
2018-05-12T01:58:52.058Z,15.00
2018-05-12T02:01:19.527Z,14.93
2018-05-12T02:03:46.973Z,14.53
2018-05-12T02:06:14.425Z,16.47
2018-05-12T02:08:41.870Z,13.37
2018-05-12T02:11:09.308Z,14.40
2018-05-12T02:13:37.547Z,13.03
2018-05-12T02:16:04.999Z,14.10
2018-05-12T02:18:32.461Z,13.50
2018-05-12T02:20:59.917Z,12.93
2018-05-12T02:23:27.376Z,12.57
2018-05-12T02:25:55.591Z,14.30
2018-05-12T02:28:23.817Z,13.33
2018-05-12T02:30:51.299Z,12.50
2018-05-12T02:33:18.765Z,15.30
2018-05-12T02:35:46.202Z,10.67
2018-05-12T02:38:13.666Z,14.03
2018-05-12T02:40:41.131Z,13.40
2018-05-12T02:43:08.592Z,15.80
2018-05-12T02:45:36.043Z,12.33
2018-05-12T02:48:03.513Z,12.03
2018-05-12T02:50:31.009Z,14.57
2018-05-12T02:52:58.483Z,12.60
2018-05-12T02:55:25.943Z,12.53
2018-05-12T02:57:53.394Z,21.27
2018-05-12T03:00:20.855Z,17.77
2018-05-12T03:02:48.334Z,17.63
2018-05-12T03:05:15.781Z,11.97
2018-05-12T03:07:43.239Z,16.57
2018-05-12T03:10:10.684Z,13.93
2018-05-12T03:12:38.156Z,12.80
2018-05-12T03:15:05.595Z,16.90
2018-05-12T03:17:33.063Z,14.90
2018-05-12T03:20:00.536Z,14.10
2018-05-12T03:22:27.989Z,16.00
2018-05-12T03:24:55.459Z,13.87
2018-05-12T03:27:23.660Z,20.90
2018-05-12T03:29:51.890Z,13.40
2018-05-12T03:32:19.339Z,14.93
2018-05-12T03:34:46.809Z,16.00
2018-05-12T03:37:14.251Z,15.40
2018-05-12T03:39:41.744Z,13.60
2018-05-12T03:42:09.200Z,12.93
2018-05-12T03:44:36.657Z,16.00
2018-05-12T03:47:04.111Z,14.57
2018-05-12T03:49:31.573Z,12.90
2018-05-12T03:51:59.022Z,15.00
2018-05-12T03:54:26.478Z,12.60
2018-05-12T03:56:53.970Z,15.87
2018-05-12T03:59:21.393Z,13.43
2018-05-12T04:01:48.855Z,15.53
2018-05-12T04:04:28.255Z,15.27
2018-05-12T04:07:07.684Z,15.70
2018-05-12T04:09:46.932Z,13.47
2018-05-12T04:12:27.211Z,15.17
2018-05-12T04:14:54.672Z,13.73
2018-05-12T04:17:22.131Z,10.93
2018-05-12T04:19:49.579Z,12.80
2018-05-12T04:22:17.032Z,14.30
2018-05-12T04:24:44.500Z,15.83
2018-05-12T04:27:11.966Z,13.73
2018-05-12T04:29:39.427Z,16.23
2018-05-12T04:32:06.874Z,14.90
2018-05-12T04:34:34.372Z,14.73
2018-05-12T04:37:02.598Z,14.30
2018-05-12T04:39:30.068Z,14.70
2018-05-12T04:41:57.520Z,14.13
2018-05-12T04:44:25.000Z,13.40
2018-05-12T04:46:52.442Z,14.57
2018-05-12T04:49:19.908Z,17.20
2018-05-12T04:51:47.364Z,12.93
2018-05-12T04:54:14.937Z,13.30
2018-05-12T04:56:42.260Z,15.87
2018-05-12T04:59:09.712Z,15.80
2018-05-12T05:01:37.151Z,13.83
2018-05-12T05:04:04.601Z,13.63
2018-05-12T05:06:32.070Z,16.90
2018-05-12T05:08:59.507Z,15.40
2018-05-12T05:11:26.964Z,13.80
2018-05-12T05:13:54.423Z,18.70
2018-05-12T05:16:21.887Z,17.80
2018-05-12T05:18:49.332Z,20.53
2018-05-12T05:21:16.819Z,19.57
2018-05-12T05:23:44.246Z,16.57
2018-05-12T05:26:11.713Z,19.70
2018-05-12T05:28:39.156Z,17.73
2018-05-12T05:31:07.379Z,17.00
2018-05-12T05:33:34.867Z,17.80
2018-05-12T05:36:02.358Z,22.40
2018-05-12T05:38:29.771Z,18.63
2018-05-12T05:40:57.225Z,19.87
2018-05-12T05:43:24.683Z,20.80
2018-05-12T05:45:52.140Z,19.90
2018-05-12T05:48:19.586Z,20.70
2018-05-12T05:50:47.034Z,21.83
2018-05-12T05:53:14.492Z,19.70
2018-05-12T05:55:41.941Z,19.73
2018-05-12T05:58:09.408Z,19.20
2018-05-12T06:00:36.860Z,25.07
2018-05-12T06:03:04.338Z,23.60
2018-05-12T06:05:31.788Z,20.83
2018-05-12T06:07:59.234Z,21.40
2018-05-12T06:10:26.696Z,24.63
2018-05-12T06:12:54.150Z,21.03
2018-05-12T06:15:21.608Z,23.33
2018-05-12T06:17:49.071Z,28.17
2018-05-12T06:20:16.514Z,24.93
2018-05-12T06:22:43.976Z,18.93
2018-05-12T06:25:11.425Z,24.27
2018-05-12T06:27:38.896Z,21.20
2018-05-12T06:30:06.341Z,22.77
2018-05-12T06:32:33.799Z,20.83
2018-05-12T06:35:01.253Z,19.03
2018-05-12T06:37:28.728Z,21.40
2018-05-12T06:39:56.175Z,21.97
2018-05-12T06:42:23.630Z,21.87
2018-05-12T06:44:51.081Z,21.30
2018-05-12T06:47:18.543Z,22.03
2018-05-12T06:49:46.000Z,27.30
2018-05-12T06:52:13.458Z,21.93
2018-05-12T06:54:40.903Z,25.63
2018-05-12T06:57:08.354Z,24.57
2018-05-12T06:59:35.801Z,22.70
2018-05-12T07:02:03.272Z,21.43
2018-05-12T07:04:30.745Z,27.37
2018-05-12T07:06:58.203Z,26.50
2018-05-12T07:09:25.855Z,23.27
2018-05-12T07:11:53.316Z,19.30
2018-05-12T07:14:20.768Z,23.00
2018-05-12T07:16:48.212Z,20.63
2018-05-12T07:19:15.667Z,22.87
2018-05-12T07:21:43.112Z,24.03
2018-05-12T07:24:11.359Z,21.53
2018-05-12T07:26:38.820Z,20.90
2018-05-12T07:29:06.274Z,19.17
2018-05-12T07:31:33.727Z,23.17
2018-05-12T07:34:02.427Z,18.20
2018-05-12T07:36:29.884Z,19.33
2018-05-12T07:38:57.382Z,26.00
2018-05-12T07:41:24.812Z,19.33
2018-05-12T07:43:53.047Z,17.60
2018-05-12T07:46:20.490Z,22.30
2018-05-12T07:48:47.944Z,24.80
2018-05-12T07:51:15.395Z,19.30
2018-05-12T07:53:42.858Z,18.97
2018-05-12T07:56:10.304Z,18.03
2018-05-12T07:58:37.755Z,21.20
2018-05-12T08:01:05.221Z,22.33
2018-05-12T08:03:32.722Z,19.10
2018-05-12T08:06:00.125Z,20.53
2018-05-12T08:08:27.594Z,25.00
2018-05-12T08:10:55.033Z,19.90
2018-05-12T08:13:22.508Z,18.47
2018-05-12T08:15:49.972Z,24.63
2018-05-12T08:18:17.425Z,21.50
2018-05-12T08:20:44.875Z,19.07
2018-05-12T08:23:12.322Z,19.60
2018-05-12T08:25:39.824Z,20.40
2018-05-12T08:28:07.276Z,20.60
2018-05-12T08:30:34.741Z,17.50
2018-05-12T08:33:02.196Z,20.40
2018-05-12T08:35:29.662Z,20.40
2018-05-12T08:37:57.131Z,21.80
2018-05-12T08:40:24.650Z,21.00
2018-05-12T08:42:52.048Z,19.87
2018-05-12T08:45:19.513Z,19.67
2018-05-12T08:47:46.962Z,19.57
2018-05-12T08:50:14.419Z,23.60
2018-05-12T08:52:41.881Z,18.67
2018-05-12T08:55:09.347Z,19.93
2018-05-12T08:57:37.555Z,17.90
2018-05-12T09:00:05.013Z,17.67
2018-05-12T09:02:32.466Z,18.87
2018-05-12T09:04:59.919Z,24.07
2018-05-12T09:07:27.410Z,17.57
2018-05-12T09:09:54.881Z,16.67
2018-05-12T09:12:22.359Z,15.30
2018-05-12T09:14:49.816Z,17.23
2018-05-12T09:17:17.274Z,16.60
2018-05-12T09:19:44.779Z,21.33
2018-05-12T09:22:12.233Z,19.17
2018-05-12T09:24:39.682Z,18.43
2018-05-12T09:27:07.139Z,16.47
2018-05-12T09:29:34.604Z,17.67
2018-05-12T09:32:02.051Z,18.50
2018-05-12T09:34:29.519Z,18.30
2018-05-12T09:36:56.968Z,19.03
2018-05-12T09:39:24.418Z,21.93
2018-05-12T09:41:51.864Z,20.33
2018-05-12T09:44:20.105Z,20.10
2018-05-12T09:46:49.426Z,18.70
2018-05-12T09:49:17.058Z,20.20
2018-05-12T09:51:44.510Z,17.37
2018-05-12T09:54:12.059Z,25.73
2018-05-12T09:56:39.593Z,21.23
2018-05-12T09:59:07.087Z,16.57
2018-05-12T10:01:34.550Z,18.20
2018-05-12T10:04:02.005Z,17.40
2018-05-12T10:06:29.593Z,17.20
2018-05-12T10:08:57.292Z,15.77
2018-05-12T10:11:24.752Z,16.80
2018-05-12T10:13:52.198Z,20.70
2018-05-12T10:16:20.695Z,18.53
2018-05-12T10:18:48.177Z,22.10
2018-05-12T10:21:15.891Z,21.13
2018-05-12T10:23:43.407Z,19.87
2018-05-12T10:26:10.971Z,16.27
2018-05-12T10:28:38.336Z,14.30
2018-05-12T10:31:05.795Z,13.83
2018-05-12T10:33:33.246Z,20.70
2018-05-12T10:36:00.711Z,16.83
2018-05-12T10:38:28.164Z,14.97
2018-05-12T10:40:55.650Z,13.20
2018-05-12T10:43:23.866Z,13.53
2018-05-12T10:45:51.319Z,14.03
2018-05-12T10:48:18.764Z,15.30
2018-05-12T10:50:46.295Z,21.03
2018-05-12T10:53:13.757Z,17.83
2018-05-12T10:55:41.978Z,20.53
2018-05-12T10:58:09.426Z,18.60
2018-05-12T11:00:36.909Z,19.50
2018-05-12T11:03:04.364Z,17.17
2018-05-12T11:05:31.851Z,17.73
2018-05-12T11:07:59.299Z,15.17
2018-05-12T11:10:26.760Z,18.70
2018-05-12T11:12:54.215Z,17.53
2018-05-12T11:15:21.658Z,16.40
2018-05-12T11:17:49.128Z,17.23
2018-05-12T11:20:16.606Z,13.67
2018-05-12T11:22:44.047Z,13.27
2018-05-12T11:25:11.504Z,16.93
2018-05-12T11:27:38.955Z,18.17
2018-05-12T11:30:06.422Z,18.00
2018-05-12T11:32:33.879Z,17.43
2018-05-12T11:35:01.338Z,15.80
2018-05-12T11:37:28.803Z,14.40
2018-05-12T11:39:57.012Z,14.37
2018-05-12T11:42:24.478Z,15.90
2018-05-12T11:44:51.942Z,15.80
2018-05-12T11:47:19.407Z,17.67
2018-05-12T11:49:46.907Z,13.80
2018-05-12T11:52:15.137Z,15.70
2018-05-12T11:54:42.613Z,14.60
2018-05-12T11:57:10.074Z,13.77
2018-05-12T11:59:37.531Z,17.43
2018-05-12T12:02:04.988Z,13.57
2018-05-12T12:04:32.435Z,16.70
2018-05-12T12:06:59.901Z,15.60
2018-05-12T12:09:27.360Z,15.17
2018-05-12T12:11:54.813Z,13.97
2018-05-12T12:14:22.274Z,13.57
2018-05-12T12:16:49.734Z,12.17
2018-05-12T12:19:17.184Z,13.60
2018-05-12T12:21:44.647Z,12.17
2018-05-12T12:24:12.131Z,11.43
2018-05-12T12:26:40.355Z,12.70
2018-05-12T12:29:07.813Z,14.13
2018-05-12T12:31:35.278Z,14.30
2018-05-12T12:34:02.735Z,14.03
2018-05-12T12:36:30.191Z,11.93
2018-05-12T12:38:57.627Z,9.33
2018-05-12T12:41:25.087Z,15.23
2018-05-12T12:43:52.617Z,11.67
2018-05-12T12:46:20.017Z,9.90
2018-05-12T12:48:47.472Z,9.87
2018-05-12T12:51:14.916Z,11.57
2018-05-12T12:53:42.377Z,9.30
2018-05-12T12:56:09.843Z,11.93
2018-05-12T12:58:37.291Z,11.00
2018-05-12T13:01:04.752Z,8.90
2018-05-12T13:03:32.209Z,10.53
2018-05-12T13:05:59.662Z,9.57
2018-05-12T13:08:27.123Z,10.23
2018-05-12T13:10:54.571Z,11.53
2018-05-12T13:13:22.016Z,9.13
2018-05-12T13:15:49.462Z,9.67
2018-05-12T13:18:17.676Z,8.10
2018-05-12T13:20:45.135Z,8.17
2018-05-12T13:23:12.596Z,8.03
2018-05-12T13:25:40.064Z,10.37
2018-05-12T13:28:07.539Z,8.87
2018-05-12T13:30:34.988Z,8.63
2018-05-12T13:33:02.433Z,7.63
2018-05-12T13:35:29.893Z,8.30
2018-05-12T13:37:57.347Z,8.70
2018-05-12T13:40:24.858Z,9.80
2018-05-12T13:42:52.266Z,11.70
2018-05-12T13:45:19.725Z,7.40
2018-05-12T13:47:47.174Z,7.90
2018-05-12T13:50:15.386Z,7.77
2018-05-12T13:52:42.838Z,9.40
2018-05-12T13:55:10.271Z,9.60
2018-05-12T13:57:37.736Z,9.10
2018-05-12T14:00:05.195Z,7.43
2018-05-12T14:02:32.639Z,9.23
2018-05-12T14:05:00.091Z,13.23
2018-05-12T14:07:27.622Z,7.50
2018-05-12T14:09:54.993Z,8.60
2018-05-12T14:12:22.460Z,6.43
2018-05-12T14:14:49.914Z,6.87
2018-05-12T14:17:17.367Z,6.90
2018-05-12T14:19:44.830Z,7.70
2018-05-12T14:22:12.271Z,9.90
2018-05-12T14:24:39.740Z,11.70
2018-05-12T14:27:07.195Z,10.77
2018-05-12T14:29:34.644Z,8.43
2018-05-12T14:32:02.099Z,9.60
2018-05-12T14:34:29.564Z,7.57
2018-05-12T14:36:57.000Z,7.03
2018-05-12T14:39:24.459Z,9.70
2018-05-12T14:41:51.901Z,7.50
2018-05-12T14:44:20.127Z,11.50
2018-05-12T14:46:47.574Z,9.17
2018-05-12T14:49:15.035Z,8.90
2018-05-12T14:51:42.488Z,10.50
2018-05-12T14:54:09.943Z,10.70
2018-05-12T14:56:37.431Z,11.17
2018-05-12T14:59:04.903Z,12.10
2018-05-12T15:01:32.339Z,9.90
2018-05-12T15:03:59.803Z,15.33
2018-05-12T15:06:27.247Z,13.67
2018-05-12T15:08:54.719Z,14.53
2018-05-12T15:11:22.157Z,12.90
2018-05-12T15:13:49.624Z,13.57
2018-05-12T15:16:17.072Z,11.50
2018-05-12T15:18:44.540Z,10.87
2018-05-12T15:21:12.073Z,11.70
2018-05-12T15:23:39.509Z,10.10
2018-05-12T15:26:06.963Z,11.50
2018-05-12T15:28:34.424Z,9.77
2018-05-12T15:31:01.883Z,12.60
2018-05-12T15:33:29.338Z,10.00
2018-05-12T15:35:56.792Z,9.53
2018-05-12T15:38:24.238Z,12.50
2018-05-12T15:40:52.471Z,9.30
2018-05-12T15:43:19.923Z,12.83
2018-05-12T15:45:47.384Z,10.20
2018-05-12T15:48:14.831Z,13.00
2018-05-12T15:50:43.058Z,10.00
2018-05-12T15:53:11.267Z,10.40
2018-05-12T15:55:38.707Z,11.20
2018-05-12T15:58:06.151Z,10.80
2018-05-12T16:00:34.373Z,12.07
2018-05-12T16:03:01.823Z,9.57
2018-05-12T16:05:29.280Z,10.87
2018-05-12T16:07:56.707Z,9.93
2018-05-12T16:10:24.178Z,10.33
2018-05-12T16:12:51.643Z,11.10
2018-05-12T16:15:19.113Z,10.23
2018-05-12T16:17:46.554Z,9.37
2018-05-12T16:20:14.022Z,11.00
2018-05-12T16:22:41.476Z,11.77
2018-05-12T16:25:08.954Z,13.13
2018-05-12T16:27:36.384Z,13.87
2018-05-12T16:30:03.847Z,11.03
2018-05-12T16:32:31.296Z,12.53
2018-05-12T16:34:58.768Z,11.53
2018-05-12T16:37:26.255Z,12.17
2018-05-12T16:39:53.670Z,14.17
2018-05-12T16:42:21.125Z,14.67
2018-05-12T16:44:48.575Z,14.03
2018-05-12T16:47:16.036Z,15.00
2018-05-12T16:49:43.507Z,13.77
2018-05-12T16:52:10.959Z,13.30
2018-05-12T16:54:38.403Z,14.60
2018-05-12T16:57:05.854Z,17.67
2018-05-12T16:59:33.314Z,14.30
2018-05-12T17:02:00.775Z,16.63
2018-05-12T17:04:28.247Z,17.93
2018-05-12T17:06:55.695Z,21.17
2018-05-12T17:09:23.149Z,24.80
2018-05-12T17:11:50.612Z,19.20
2018-05-12T17:14:18.060Z,15.27
2018-05-12T17:16:45.523Z,15.60
2018-05-12T17:19:12.972Z,14.80
2018-05-12T17:21:41.193Z,15.23
2018-05-12T17:24:08.637Z,17.50
2018-05-12T17:26:36.107Z,15.00
2018-05-12T17:29:03.550Z,15.33
2018-05-12T17:31:31.015Z,15.23
2018-05-12T17:33:58.467Z,14.67
2018-05-12T17:36:25.923Z,15.30
2018-05-12T17:38:53.368Z,19.43
2018-05-12T17:41:20.819Z,15.37
2018-05-12T17:43:48.270Z,15.03
2018-05-12T17:46:15.735Z,15.67
2018-05-12T17:48:43.181Z,14.17
2018-05-12T17:51:10.642Z,12.83
2018-05-12T17:53:38.091Z,14.90
2018-05-12T17:56:05.551Z,14.73
2018-05-12T17:58:32.991Z,15.00
2018-05-12T18:01:01.223Z,12.30
2018-05-12T18:03:28.687Z,13.50
2018-05-12T18:05:56.152Z,15.30
2018-05-12T18:08:23.602Z,15.07
2018-05-12T18:10:51.062Z,15.13
2018-05-12T18:13:18.519Z,15.53
2018-05-12T18:15:45.982Z,14.73
2018-05-12T18:18:13.439Z,13.70
2018-05-12T18:20:57.170Z,14.87
2018-05-12T18:23:24.648Z,14.40
2018-05-12T18:25:52.083Z,17.10
2018-05-12T18:28:19.601Z,20.73
2018-05-12T18:30:47.059Z,17.70
2018-05-12T18:35:49.051Z,18.00
2018-05-12T18:38:16.513Z,18.63
2018-05-12T18:40:43.960Z,16.43
2018-05-12T18:43:11.415Z,16.53
2018-05-12T18:45:38.872Z,17.80
2018-05-12T18:48:06.336Z,16.60
2018-05-12T18:50:33.863Z,20.50
2018-05-12T18:53:01.269Z,18.50
2018-05-12T18:55:28.716Z,16.40
2018-05-12T18:57:56.172Z,18.17
2018-05-12T19:00:23.642Z,15.97
2018-05-12T19:02:51.104Z,17.03
2018-05-12T19:05:18.559Z,17.50
2018-05-12T19:07:46.018Z,17.00
2018-05-12T19:10:13.468Z,16.50
2018-05-12T19:12:40.946Z,15.83
2018-05-12T19:15:08.419Z,17.80
2018-05-12T19:17:35.879Z,19.00
2018-05-12T19:20:03.326Z,17.70
2018-05-12T19:22:30.797Z,16.63
2018-05-12T19:24:58.262Z,16.03
2018-05-12T19:27:26.490Z,17.47
2018-05-12T19:32:27.883Z,18.37
2018-05-12T19:34:55.341Z,20.17
2018-05-12T19:37:22.800Z,18.00
2018-05-12T19:39:50.270Z,17.47
2018-05-12T19:42:18.517Z,17.50
2018-05-12T19:44:46.726Z,17.30
2018-05-12T19:47:14.950Z,18.10
2018-05-12T19:49:42.413Z,18.10
2018-05-12T19:52:09.874Z,16.50
2018-05-12T19:54:37.333Z,16.87
2018-05-12T19:57:04.788Z,16.60
2018-05-12T19:59:32.232Z,22.67
2018-05-12T20:01:59.687Z,17.17
2018-05-12T20:04:27.163Z,17.00
2018-05-12T20:06:54.672Z,17.23
2018-05-12T20:09:22.192Z,18.10
2018-05-12T20:11:49.641Z,18.37
2018-05-12T20:14:17.097Z,20.53
2018-05-12T20:16:44.547Z,19.57
2018-05-12T20:19:12.774Z,18.57
2018-05-12T20:21:40.999Z,19.27
2018-05-12T20:24:08.463Z,19.77
2018-05-12T20:26:35.933Z,16.13
2018-05-12T20:29:03.401Z,19.40
2018-05-12T20:31:30.851Z,17.60
2018-05-12T20:33:58.327Z,16.00
2018-05-12T20:36:25.775Z,18.77
2018-05-12T20:38:53.284Z,19.47
2018-05-12T20:41:21.467Z,20.40
2018-05-12T20:43:48.955Z,18.87
2018-05-12T20:46:16.415Z,19.63
2018-05-12T20:48:43.876Z,17.30
2018-05-12T20:51:11.336Z,18.27
2018-05-12T20:53:38.788Z,18.70
2018-05-12T20:56:06.231Z,17.57
2018-05-12T21:01:07.666Z,18.47
2018-05-12T21:03:35.146Z,19.30
2018-05-12T21:06:02.603Z,16.40
2018-05-12T21:08:30.064Z,18.23
2018-05-12T21:10:57.529Z,20.07
2018-05-12T21:13:24.976Z,18.20
2018-05-12T21:15:52.431Z,18.40
2018-05-12T21:18:19.884Z,21.77
2018-05-12T21:20:47.339Z,18.80
2018-05-12T21:23:14.792Z,17.80
2018-05-12T21:25:42.255Z,19.87
2018-05-12T21:28:09.707Z,17.73
2018-05-12T21:30:37.198Z,17.17
2018-05-12T21:33:04.655Z,19.03
2018-05-12T21:35:32.112Z,20.00
2018-05-12T21:37:59.627Z,21.93
2018-05-12T21:40:27.024Z,20.03
2018-05-12T21:42:54.480Z,20.20
2018-05-12T21:45:21.940Z,20.67
2018-05-12T21:47:49.394Z,24.87
2018-05-12T21:50:16.880Z,23.70
2018-05-12T21:52:44.326Z,19.77
2018-05-12T21:55:11.774Z,18.70
2018-05-12T21:57:39.230Z,21.57
2018-05-12T22:00:06.687Z,20.00
2018-05-12T22:02:34.139Z,20.97
2018-05-12T22:05:01.591Z,30.33
2018-05-12T22:07:29.041Z,20.27
2018-05-12T22:09:56.488Z,21.57
2018-05-12T22:12:23.943Z,19.90
2018-05-12T22:14:51.399Z,19.67
2018-05-12T22:17:18.869Z,20.13
2018-05-12T22:19:47.087Z,18.90
2018-05-12T22:22:14.559Z,15.83
2018-05-12T22:24:42.017Z,13.90
2018-05-12T22:27:10.248Z,13.07
2018-05-12T22:29:37.724Z,13.90
2018-05-12T22:32:05.180Z,13.37
2018-05-12T22:34:32.639Z,12.53
2018-05-12T22:37:00.104Z,12.83
2018-05-12T22:39:27.548Z,14.60
2018-05-12T22:41:54.999Z,16.93
2018-05-12T22:44:22.446Z,14.57
2018-05-12T22:46:49.921Z,11.80
2018-05-12T22:49:17.363Z,10.47
2018-05-12T22:54:18.820Z,8.17
2018-05-12T22:56:46.274Z,10.60
2018-05-12T22:59:13.733Z,7.67
2018-05-12T23:01:41.202Z,10.50
2018-05-12T23:04:08.745Z,8.20
2018-05-12T23:06:36.103Z,5.43
2018-05-12T23:09:03.560Z,4.80
2018-05-12T23:11:31.019Z,3.50
2018-05-12T23:13:58.462Z,3.90
2018-05-12T23:16:25.914Z,7.50
2018-05-12T23:18:53.367Z,3.03
2018-05-12T23:21:20.815Z,3.70
2018-05-12T23:23:48.254Z,4.63
2018-05-12T23:26:16.459Z,2.70
2018-05-12T23:28:43.914Z,3.13
2018-05-12T23:31:11.375Z,5.10
2018-05-12T23:33:38.838Z,2.90
2018-05-12T23:36:06.285Z,4.83
2018-05-12T23:38:33.734Z,3.00
2018-05-12T23:41:01.179Z,5.33
2018-05-12T23:43:28.640Z,5.40
2018-05-12T23:45:56.103Z,5.90
2018-05-12T23:48:23.568Z,4.47
2018-05-12T23:50:51.006Z,5.57
2018-05-12T23:53:18.482Z,6.37
2018-05-12T23:55:45.930Z,4.03
2018-05-12T23:58:13.413Z,6.13
